Time;durP1;ratioP1;P1;durP2;ratioP2;P2;SDS_P1;SDS_P2;PMS_P1;PMS_P2;Temp;Humidity;BMP_temperature;BMP_pressure;BME280_temperature;BME280_humidity;BME280_pressure;Samples;Min_cycle;Max_cycle;Signal;HPM_P1;HPM_P2
2022/01/14 00:01:49;;;;;;;18.40;9.95;;;0.60;99.90;;;;;;5018095;28;20045;-85
2022/01/14 00:04:15;;;;;;;15.93;9.18;;;0.60;99.90;;;;;;5016998;28;20025;-85
2022/01/14 00:06:41;;;;;;;16.70;9.20;;;0.70;99.90;;;;;;5034838;28;20094;-86
2022/01/14 00:09:10;;;;;;;15.63;8.80;;;0.70;99.90;;;;;;5035221;28;20472;-84
2022/01/14 00:11:45;;;;;;;14.68;8.90;;;0.80;99.90;;;;;;5036192;28;20029;-82
2022/01/14 00:14:22;;;;;;;14.68;8.10;;;0.80;99.90;;;;;;5044600;28;20048;-84
2022/01/14 00:16:49;;;;;;;15.80;8.35;;;0.90;99.90;;;;;;5027360;28;20036;-83
2022/01/14 00:19:15;;;;;;;14.70;8.23;;;0.90;99.90;;;;;;5040060;28;20060;-85
2022/01/14 00:21:43;;;;;;;14.20;8.40;;;0.90;99.90;;;;;;5034882;28;20068;-85
2022/01/14 00:32:27;;;;;;;11.38;7.22;;;1.10;99.90;;;;;;5034535;28;20036;-85
2022/01/14 00:34:54;;;;;;;11.70;6.88;;;1.10;99.90;;;;;;5016954;28;20076;-85
2022/01/14 00:37:19;;;;;;;12.70;7.63;;;1.10;99.90;;;;;;5042416;28;20521;-85
2022/01/14 00:39:46;;;;;;;10.85;6.70;;;1.10;99.90;;;;;;5035950;28;20033;-84
2022/01/14 00:42:13;;;;;;;10.95;7.00;;;1.20;99.90;;;;;;5054156;28;20112;-84
2022/01/14 00:44:38;;;;;;;12.40;7.53;;;1.20;99.90;;;;;;5036457;28;20029;-84
2022/01/14 00:47:05;;;;;;;12.43;7.00;;;1.30;99.90;;;;;;5054250;28;20029;-85
2022/01/14 00:49:30;;;;;;;10.70;6.30;;;1.20;99.90;;;;;;5036315;28;20025;-84
2022/01/14 00:51:57;;;;;;;10.23;5.95;;;1.30;99.90;;;;;;5036172;28;20497;-83
2022/01/14 00:54:24;;;;;;;10.65;5.82;;;1.30;99.90;;;;;;5036029;28;20116;-85
2022/01/14 00:57:13;;;;;;;9.93;6.10;;;1.30;99.90;;;;;;5036211;28;20029;-84
2022/01/14 00:59:36;;;;;;;9.45;6.10;;;1.40;99.90;;;;;;5053986;28;20029;-84
2022/01/14 01:02:05;;;;;;;10.40;6.25;;;1.40;99.90;;;;;;5035475;28;20458;-86
2022/01/14 01:04:39;;;;;;;8.82;5.93;;;1.40;99.90;;;;;;5035756;28;20108;-84
2022/01/14 01:07:07;;;;;;;9.10;5.88;;;1.40;99.90;;;;;;5036423;28;20025;-83
2022/01/14 01:09:35;;;;;;;9.90;5.70;;;1.40;99.90;;;;;;5053543;28;20135;-83
2022/01/14 01:15:20;;;;;;;10.10;5.85;;;1.50;99.90;;;;;;5053973;28;20029;-84
2022/01/14 01:17:25;;;;;;;10.55;6.43;;;1.50;99.90;;;;;;5046977;28;20356;-84
2022/01/14 01:19:50;;;;;;;8.68;5.50;;;1.50;99.90;;;;;;5036561;28;20027;-83
2022/01/14 01:22:16;;;;;;;9.10;6.25;;;1.50;99.90;;;;;;5035819;28;20490;-86
2022/01/14 01:24:41;;;;;;;10.07;5.88;;;1.50;99.90;;;;;;5035328;28;20451;-84
2022/01/14 01:27:09;;;;;;;9.70;5.55;;;1.60;99.90;;;;;;5053489;28;20378;-85
2022/01/14 01:32:06;;;;;;;8.18;5.28;;;1.60;99.90;;;;;;5034189;28;20041;-85
2022/01/14 01:34:32;;;;;;;8.77;5.82;;;1.60;99.90;;;;;;5033726;28;20026;-84
2022/01/14 01:36:58;;;;;;;9.65;5.82;;;1.60;99.90;;;;;;5036388;28;20099;-84
2022/01/14 01:39:26;;;;;;;14.80;8.15;;;1.70;99.90;;;;;;5035984;28;20391;-83
2022/01/14 01:41:55;;;;;;;15.05;8.63;;;1.70;99.90;;;;;;5053636;28;20371;-82
2022/01/14 01:44:22;;;;;;;10.80;6.72;;;1.70;99.90;;;;;;5035124;28;20033;-82
2022/01/14 01:46:49;;;;;;;11.38;7.07;;;1.70;99.90;;;;;;5035995;28;20047;-83
2022/01/14 01:49:19;;;;;;;11.18;6.88;;;1.70;99.90;;;;;;5053412;28;20029;-83
2022/01/14 01:51:47;;;;;;;9.07;6.03;;;1.70;99.90;;;;;;5035587;28;20025;-83
2022/01/14 01:54:14;;;;;;;8.07;5.70;;;1.70;99.90;;;;;;5035614;28;20258;-83
2022/01/14 01:56:40;;;;;;;8.30;5.65;;;1.80;99.90;;;;;;5035110;28;20029;-83
2022/01/14 01:59:06;;;;;;;10.57;6.38;;;1.80;99.90;;;;;;5053508;28;20021;-83
2022/01/14 02:01:32;;;;;;;9.98;6.15;;;1.80;99.90;;;;;;5035796;28;20033;-84
2022/01/14 02:03:58;;;;;;;10.00;6.20;;;1.80;99.90;;;;;;5053172;28;20073;-83
2022/01/14 02:06:24;;;;;;;9.55;5.82;;;1.80;99.90;;;;;;5038692;28;20483;-83
2022/01/14 02:08:51;;;;;;;9.70;6.05;;;1.80;99.90;;;;;;5057132;28;20088;-85
2022/01/14 02:11:17;;;;;;;10.57;6.72;;;1.80;99.90;;;;;;5056739;28;20100;-83
2022/01/14 02:13:44;;;;;;;8.82;6.25;;;1.80;99.90;;;;;;5039270;28;20071;-83
2022/01/14 02:16:19;;;;;;;9.27;6.43;;;1.80;99.90;;;;;;5025089;28;20029;-83
2022/01/14 02:26:52;;;;;;;8.60;5.63;;;1.80;99.90;;;;;;5037252;28;20424;-84
2022/01/14 02:29:20;;;;;;;8.05;4.95;;;1.80;99.90;;;;;;5036831;28;20040;-83
2022/01/14 02:31:46;;;;;;;7.32;4.68;;;1.80;99.90;;;;;;5018985;28;20029;-84
2022/01/14 02:34:14;;;;;;;7.90;4.90;;;1.90;99.90;;;;;;5018849;28;20025;-83
2022/01/14 02:36:41;;;;;;;9.60;5.45;;;1.90;99.90;;;;;;5023374;28;20029;-84
2022/01/14 02:39:09;;;;;;;7.18;4.35;;;1.90;99.90;;;;;;5038504;28;20040;-84
2022/01/14 02:41:36;;;;;;;7.25;4.95;;;1.90;99.90;;;;;;5038532;28;20386;-84
2022/01/14 02:44:06;;;;;;;7.07;4.80;;;1.90;99.90;;;;;;5056628;28;20040;-83
2022/01/14 02:46:43;;;;;;;7.40;4.97;;;1.90;99.90;;;;;;5057389;28;20040;-83
2022/01/14 02:49:10;;;;;;;8.40;4.55;;;1.90;99.90;;;;;;5057315;28;20025;-82
2022/01/14 02:51:35;;;;;;;6.65;4.53;;;2.00;99.90;;;;;;5038621;28;20383;-83
2022/01/14 02:54:16;;;;;;;7.90;4.97;;;2.00;99.90;;;;;;5056140;28;20025;-84
2022/01/14 02:56:46;;;;;;;6.70;4.55;;;2.00;99.90;;;;;;5038955;28;20459;-83
2022/01/14 02:59:15;;;;;;;7.15;4.50;;;1.90;99.90;;;;;;5056417;28;20479;-84
2022/01/14 03:01:42;;;;;;;7.25;4.18;;;2.00;99.90;;;;;;5038941;28;20367;-83
2022/01/14 03:04:09;;;;;;;7.43;4.32;;;1.90;99.90;;;;;;5056269;28;20463;-83
2022/01/14 03:06:35;;;;;;;7.47;4.45;;;1.90;99.90;;;;;;5056155;28;20380;-83
2022/01/14 03:09:01;;;;;;;8.25;5.55;;;2.00;99.90;;;;;;5038381;28;20060;-83
2022/01/14 03:11:34;;;;;;;7.97;4.90;;;2.00;99.90;;;;;;5038272;28;20025;-83
2022/01/14 03:14:02;;;;;;;8.77;5.50;;;2.00;99.90;;;;;;5056640;28;20072;-83
2022/01/14 03:16:29;;;;;;;11.70;7.03;;;2.00;99.90;;;;;;5056196;28;20029;-82
2022/01/14 03:19:05;;;;;;;11.90;7.22;;;2.00;99.90;;;;;;5056075;28;20071;-83
2022/01/14 03:21:36;;;;;;;10.73;6.40;;;2.00;99.90;;;;;;5042754;28;20029;-83
2022/01/14 03:24:15;;;;;;;13.07;7.93;;;2.10;99.90;;;;;;5039730;28;20043;-83
2022/01/14 03:26:41;;;;;;;13.90;8.10;;;2.10;99.90;;;;;;5039204;28;20410;-83
2022/01/14 03:29:07;;;;;;;11.45;6.70;;;2.10;99.90;;;;;;5036776;28;20086;-84
2022/01/14 03:31:32;;;;;;;11.27;6.05;;;2.10;99.90;;;;;;5035252;28;20068;-85
2022/01/14 03:33:58;;;;;;;10.18;6.10;;;2.10;99.90;;;;;;5017770;28;20025;-84
2022/01/14 03:36:25;;;;;;;11.82;7.00;;;2.10;99.90;;;;;;5035987;28;20099;-85
2022/01/14 03:38:51;;;;;;;11.15;6.68;;;2.10;99.90;;;;;;5017774;28;20120;-85
2022/01/14 03:41:16;;;;;;;10.55;6.72;;;2.10;99.90;;;;;;5040140;28;20454;-85
2022/01/14 03:43:42;;;;;;;9.65;5.57;;;2.10;99.90;;;;;;5035590;28;20026;-84
2022/01/14 03:46:08;;;;;;;8.20;5.63;;;2.20;99.90;;;;;;5017557;28;20025;-84
2022/01/14 03:48:39;;;;;;;10.85;6.03;;;2.20;99.90;;;;;;5017551;28;20029;-85
2022/01/14 03:51:05;;;;;;;9.05;5.97;;;2.20;99.90;;;;;;5018403;28;20113;-85
2022/01/14 03:53:31;;;;;;;12.70;7.13;;;2.20;99.90;;;;;;5018278;28;20046;-84
2022/01/14 03:55:57;;;;;;;12.40;6.57;;;2.20;99.90;;;;;;5018385;28;20363;-83
2022/01/14 03:58:23;;;;;;;11.20;6.55;;;2.20;99.90;;;;;;5035519;28;20022;-83
2022/01/14 04:00:49;;;;;;;17.05;8.38;;;2.20;99.90;;;;;;5035041;28;20022;-83
2022/01/14 04:03:15;;;;;;;16.60;8.65;;;2.20;99.90;;;;;;5017594;28;20112;-83
2022/01/14 04:05:40;;;;;;;16.70;8.30;;;2.20;99.90;;;;;;5003703;28;20044;-82
2022/01/14 04:08:06;;;;;;;17.92;8.68;;;2.20;99.90;;;;;;5017552;28;20032;-83
2022/01/14 04:10:32;;;;;;;18.38;9.32;;;2.20;99.90;;;;;;5017971;28;20108;-83
2022/01/14 04:18:19;;;;;;;22.35;11.70;;;2.20;99.90;;;;;;5037704;28;20032;-83
2022/01/14 04:20:48;;;;;;;20.05;9.90;;;2.20;99.90;;;;;;5035150;28;20026;-84
2022/01/14 04:23:17;;;;;;;14.20;7.82;;;2.20;99.90;;;;;;5020995;28;20495;-82
2022/01/14 04:25:44;;;;;;;14.00;7.30;;;2.20;99.90;;;;;;5040512;28;20029;-83
2022/01/14 04:28:10;;;;;;;15.27;8.10;;;2.20;99.90;;;;;;5018151;28;20042;-83
2022/01/14 04:30:37;;;;;;;11.82;6.57;;;2.20;99.90;;;;;;5016788;28;20035;-84
2022/01/14 04:33:05;;;;;;;11.65;6.88;;;2.20;99.90;;;;;;5034697;28;20029;-84
2022/01/14 04:35:32;;;;;;;12.20;7.13;;;2.30;99.90;;;;;;5017129;28;20025;-86
2022/01/14 04:37:58;;;;;;;13.70;7.47;;;2.30;99.90;;;;;;5034196;28;20022;-86
2022/01/14 04:40:24;;;;;;;13.25;7.90;;;2.30;99.90;;;;;;5034334;28;20025;-86
2022/01/14 04:42:52;;;;;;;11.02;6.72;;;2.30;99.90;;;;;;5016282;28;20514;-86
2022/01/14 04:45:40;;;;;;;10.48;6.47;;;2.30;99.90;;;;;;5034427;28;20060;-86
2022/01/14 04:48:09;;;;;;;11.77;7.05;;;2.30;99.90;;;;;;5034350;28;20025;-84
2022/01/14 04:50:35;;;;;;;12.95;7.20;;;2.30;99.90;;;;;;5033690;28;20518;-86
2022/01/14 04:53:01;;;;;;;12.80;7.10;;;2.30;99.90;;;;;;5053466;28;20081;-86
2022/01/14 04:55:28;;;;;;;29.80;15.85;;;2.40;99.90;;;;;;5036919;28;20029;-88
2022/01/14 04:57:57;;;;;;;35.78;20.45;;;2.40;99.90;;;;;;5036126;28;20029;-84
2022/01/14 05:00:25;;;;;;;37.50;21.75;;;2.40;99.90;;;;;;5053873;28;20490;-87
2022/01/14 05:02:55;;;;;;;26.83;16.55;;;2.30;99.90;;;;;;5035657;28;20044;-86
2022/01/14 05:05:23;;;;;;;24.90;15.20;;;2.30;99.90;;;;;;5059855;28;20017;-87
2022/01/14 05:07:50;;;;;;;25.92;16.98;;;2.40;99.90;;;;;;5050887;28;20033;-87
2022/01/14 05:12:55;;;;;;;23.35;14.50;;;2.40;99.90;;;;;;5054650;28;20033;-90
2022/01/14 05:15:21;;;;;;;23.02;14.88;;;2.40;99.90;;;;;;5041196;28;20390;-88
2022/01/14 05:17:58;;;;;;;16.35;10.70;;;2.40;99.90;;;;;;5038931;28;20025;-86
2022/01/14 05:20:23;;;;;;;14.20;10.20;;;2.40;99.90;;;;;;5036746;28;20235;-82
2022/01/14 05:22:49;;;;;;;15.82;11.57;;;2.40;99.90;;;;;;5054611;28;20556;-84
2022/01/14 05:25:16;;;;;;;13.63;9.45;;;2.30;99.90;;;;;;5046898;28;20029;-83
2022/01/14 05:27:44;;;;;;;11.98;8.75;;;2.30;99.90;;;;;;5064762;28;20087;-90
2022/01/14 05:30:11;;;;;;;12.00;7.47;;;2.40;99.90;;;;;;5041129;28;20044;-90
2022/01/14 05:32:46;;;;;;;11.13;6.60;;;2.30;99.90;;;;;;5036385;28;20033;-86
2022/01/14 05:35:17;;;;;;;9.27;5.28;;;2.30;99.90;;;;;;5037554;28;20056;-85
2022/01/14 05:37:43;;;;;;;8.68;5.15;;;2.30;99.90;;;;;;5053981;28;20481;-82
2022/01/14 05:40:09;;;;;;;10.18;5.45;;;2.40;99.90;;;;;;5036786;28;20022;-85
2022/01/14 05:42:36;;;;;;;10.00;5.95;;;2.30;99.90;;;;;;5039697;28;20025;-86
2022/01/14 05:45:03;;;;;;;10.25;6.00;;;2.30;99.90;;;;;;5040699;28;20029;-86
2022/01/14 05:47:30;;;;;;;11.23;6.60;;;2.40;99.90;;;;;;5035952;28;20036;-86
2022/01/14 05:49:56;;;;;;;16.23;8.23;;;2.30;99.90;;;;;;5029754;28;20030;-88
2022/01/14 05:52:21;;;;;;;25.58;11.82;;;2.30;99.90;;;;;;5037827;28;20497;-87
2022/01/14 05:54:51;;;;;;;25.77;11.18;;;2.30;99.90;;;;;;5047441;28;20079;-86
2022/01/14 05:57:17;;;;;;;28.25;12.60;;;2.30;99.90;;;;;;5041904;28;20108;-86
2022/01/14 05:59:43;;;;;;;20.73;9.88;;;2.30;99.90;;;;;;5035572;28;20093;-87
2022/01/14 06:02:09;;;;;;;17.80;8.55;;;2.40;99.90;;;;;;5019583;28;20034;-85
2022/01/14 06:04:34;;;;;;;16.52;8.10;;;2.40;99.90;;;;;;5019007;28;20117;-85
2022/01/14 06:07:03;;;;;;;13.15;6.70;;;2.40;99.90;;;;;;5019387;28;20037;-87
2022/01/14 06:09:31;;;;;;;14.75;7.10;;;2.40;99.90;;;;;;5018146;28;20100;-87
2022/01/14 06:11:57;;;;;;;12.05;6.45;;;2.40;99.90;;;;;;5036207;28;20418;-85
2022/01/14 06:14:23;;;;;;;10.75;5.35;;;2.40;99.90;;;;;;5017746;28;20080;-87
2022/01/14 06:16:48;;;;;;;11.32;5.78;;;2.40;99.90;;;;;;5017829;28;20452;-87
2022/01/14 06:19:14;;;;;;;25.00;13.25;;;2.40;99.90;;;;;;5035308;28;20026;-87
2022/01/14 06:21:40;;;;;;;20.58;11.77;;;2.50;99.90;;;;;;5018740;28;20099;-89
2022/01/14 06:24:06;;;;;;;17.02;8.93;;;2.50;99.90;;;;;;5020036;28;20033;-85
2022/01/14 06:26:31;;;;;;;11.95;6.95;;;2.50;99.90;;;;;;5047205;28;20041;-85
2022/01/14 06:28:57;;;;;;;12.60;7.70;;;2.60;99.90;;;;;;5031484;28;20025;-87
2022/01/14 06:31:23;;;;;;;9.38;6.25;;;2.60;99.90;;;;;;5037817;28;20064;-81
2022/01/14 06:33:49;;;;;;;9.63;5.93;;;2.60;99.90;;;;;;5035093;28;20032;-81
2022/01/14 06:36:17;;;;;;;14.38;7.90;;;2.60;99.90;;;;;;5035960;28;20026;-82
2022/01/14 06:38:43;;;;;;;22.02;9.85;;;2.60;99.90;;;;;;5017659;28;20424;-84
2022/01/14 06:41:08;;;;;;;21.70;9.82;;;2.60;99.90;;;;;;5017654;28;20040;-84
2022/01/14 06:43:34;;;;;;;16.63;8.05;;;2.60;99.90;;;;;;5017273;28;20068;-82
2022/01/14 06:46:00;;;;;;;13.95;7.25;;;2.60;99.90;;;;;;5017302;28;20029;-81
2022/01/14 06:48:26;;;;;;;14.45;7.32;;;2.70;99.90;;;;;;5035265;28;20030;-81
2022/01/14 06:50:51;;;;;;;12.02;5.60;;;2.70;99.90;;;;;;5016924;28;20022;-91
2022/01/14 06:53:17;;;;;;;12.80;5.80;;;2.70;99.90;;;;;;5021240;28;20033;-89
2022/01/14 06:55:43;;;;;;;11.10;5.72;;;2.80;99.90;;;;;;5017643;28;20025;-82
2022/01/14 06:58:09;;;;;;;14.43;5.38;;;2.70;99.90;;;;;;5035383;28;20078;-83
2022/01/14 07:00:35;;;;;;;10.00;5.70;;;2.80;99.90;;;;;;5018273;28;20029;-83
2022/01/14 07:03:01;;;;;;;11.15;5.72;;;2.80;99.90;;;;;;5034765;28;20025;-83
2022/01/14 07:05:27;;;;;;;13.85;7.07;;;2.80;99.90;;;;;;5034808;28;20033;-84
2022/01/14 07:07:53;;;;;;;26.90;12.15;;;2.80;99.90;;;;;;5016694;28;20478;-84
2022/01/14 07:10:19;;;;;;;17.58;8.32;;;2.90;99.90;;;;;;4993689;28;1196340;-81
2022/01/14 07:12:45;;;;;;;11.75;6.60;;;2.90;99.90;;;;;;5018061;28;20070;-81
2022/01/14 07:15:16;;;;;;;11.27;5.80;;;2.90;99.90;;;;;;5035790;28;20033;-81
2022/01/14 07:17:44;;;;;;;12.77;5.90;;;3.00;99.90;;;;;;5035543;28;20022;-81
2022/01/14 07:20:13;;;;;;;9.82;5.55;;;3.00;99.90;;;;;;5035641;28;20037;-81
2022/01/14 07:22:41;;;;;;;10.50;5.82;;;3.00;99.90;;;;;;5016694;28;20358;-81
2022/01/14 07:25:07;;;;;;;11.30;6.00;;;3.00;99.90;;;;;;5039386;28;20069;-81
2022/01/14 07:27:36;;;;;;;8.77;5.40;;;3.00;99.90;;;;;;5025258;28;20486;-81
2022/01/14 07:30:06;;;;;;;9.70;5.75;;;3.00;99.90;;;;;;5023014;28;20036;-81
2022/01/14 07:32:31;;;;;;;7.85;4.90;;;3.10;99.90;;;;;;5036627;28;20144;-80
2022/01/14 07:34:57;;;;;;;8.73;5.15;;;3.10;99.90;;;;;;5016445;28;20226;-82
2022/01/14 07:37:25;;;;;;;10.35;5.60;;;3.10;99.90;;;;;;5035476;28;20037;-81
2022/01/14 07:39:51;;;;;;;17.67;8.68;;;3.10;99.90;;;;;;5017376;28;20131;-81
2022/01/14 07:42:17;;;;;;;25.30;10.93;;;3.10;99.90;;;;;;5033524;28;20030;-81
2022/01/14 07:44:46;;;;;;;26.50;10.07;;;3.20;99.90;;;;;;5015552;28;20029;-82
2022/01/14 07:47:11;;;;;;;24.70;10.80;;;3.20;99.90;;;;;;5015685;28;20442;-80
2022/01/14 07:49:37;;;;;;;22.33;10.25;;;3.20;99.90;;;;;;5015388;28;20124;-82
2022/01/14 07:52:06;;;;;;;21.90;10.73;;;3.20;99.90;;;;;;5033141;28;20034;-81
2022/01/14 07:54:32;;;;;;;19.73;10.43;;;3.20;99.90;;;;;;5029258;28;20117;-81
2022/01/14 07:56:59;;;;;;;17.60;10.30;;;3.20;99.90;;;;;;5034739;28;20025;-83
2022/01/14 07:59:27;;;;;;;19.70;10.93;;;3.20;99.90;;;;;;5042239;28;20164;-81
2022/01/14 08:01:58;;;;;;;18.27;10.10;;;3.10;99.90;;;;;;5040692;28;20471;-82
2022/01/14 08:04:26;;;;;;;;;;;3.10;99.90;;;;;;5049168;28;20469;-87
2022/01/14 08:06:56;;;;;;;17.27;9.75;;;3.10;99.90;;;;;;5072302;28;20741;-82
2022/01/14 08:09:23;;;;;;;14.10;7.88;;;3.20;99.90;;;;;;5052743;28;20045;-81
2022/01/14 16:20:03;;;;;;;4.93;2.60;;;4.10;99.90;;;;;;6231675;22;20103;-90
2022/01/14 16:22:29;;;;;;;3.83;2.60;;;4.10;99.90;;;;;;6113043;23;1515604;-86
2022/01/14 16:24:55;;;;;;;3.38;2.38;;;4.10;99.90;;;;;;6192032;23;20009;-85
2022/01/14 16:27:21;;;;;;;3.53;2.20;;;4.10;99.90;;;;;;6190673;23;19997;-90
2022/01/14 16:29:48;;;;;;;2.88;2.15;;;4.10;99.90;;;;;;6160587;23;20001;-85
2022/01/14 16:32:17;;;;;;;2.08;1.80;;;4.10;99.90;;;;;;6156614;23;20001;-88
2022/01/14 16:34:44;;;;;;;2.70;1.75;;;4.10;99.90;;;;;;6156488;23;20048;-89
2022/01/14 16:37:11;;;;;;;2.90;1.75;;;4.10;99.90;;;;;;6183494;23;20007;-86
2022/01/14 16:39:42;;;;;;;2.47;1.63;;;4.20;99.90;;;;;;6155324;23;20013;-84
2022/01/14 16:42:10;;;;;;;2.50;2.00;;;4.10;99.90;;;;;;6180042;23;20324;-83
2022/01/14 16:44:41;;;;;;;2.88;1.70;;;4.10;99.90;;;;;;6157017;23;20356;-87
2022/01/14 16:47:07;;;;;;;2.90;1.85;;;4.20;99.90;;;;;;6183921;23;19997;-85
2022/01/14 16:49:33;;;;;;;3.50;1.77;;;4.20;99.90;;;;;;6183570;23;19993;-83
2022/01/14 16:52:05;;;;;;;2.92;1.90;;;4.20;99.90;;;;;;6157472;23;20008;-89
2022/01/14 16:54:31;;;;;;;2.28;1.83;;;4.20;99.90;;;;;;6155657;23;20424;-87
2022/01/14 16:56:57;;;;;;;3.17;2.00;;;4.20;99.90;;;;;;6157599;23;20013;-84
2022/01/14 16:59:23;;;;;;;2.97;1.95;;;4.20;99.90;;;;;;6182508;23;20433;-84
2022/01/14 17:01:50;;;;;;;2.53;1.85;;;4.20;99.90;;;;;;6158890;23;20093;-87
2022/01/14 17:04:16;;;;;;;2.38;1.67;;;4.10;99.90;;;;;;6183083;23;20083;-87
2022/01/14 17:06:43;;;;;;;34.95;18.88;;;4.10;99.90;;;;;;6186269;23;20320;-85
2022/01/14 17:09:10;;;;;;;75.15;44.85;;;4.10;99.90;;;;;;6183268;23;20272;-87
2022/01/14 17:11:37;;;;;;;42.70;23.60;;;4.20;99.90;;;;;;6156826;23;20088;-87
2022/01/14 17:14:04;;;;;;;15.43;8.57;;;4.20;99.90;;;;;;6183015;23;20331;-84
2022/01/14 17:16:30;;;;;;;9.18;5.10;;;4.30;99.90;;;;;;6157718;23;20001;-87
2022/01/14 17:18:56;;;;;;;7.38;4.20;;;4.20;99.90;;;;;;6158340;23;20008;-83
2022/01/14 17:21:22;;;;;;;4.95;2.70;;;4.20;99.90;;;;;;6157933;23;20336;-80
2022/01/14 17:23:48;;;;;;;4.45;2.88;;;4.30;99.90;;;;;;6158929;23;20152;-80
2022/01/14 17:26:14;;;;;;;3.35;2.10;;;4.20;99.90;;;;;;6186517;23;20061;-79
2022/01/14 17:28:41;;;;;;;1.88;1.50;;;4.30;99.90;;;;;;6185705;23;20315;-80
2022/01/14 17:31:09;;;;;;;1.42;1.10;;;4.30;99.90;;;;;;6158931;23;20064;-83
2022/01/14 17:33:37;;;;;;;1.75;1.13;;;4.30;99.90;;;;;;6158716;23;20005;-81
2022/01/14 17:36:04;;;;;;;3.50;1.20;;;4.30;99.90;;;;;;6184556;23;19997;-82
2022/01/14 17:38:30;;;;;;;2.10;1.25;;;4.30;99.90;;;;;;6184296;23;20089;-90
2022/01/14 17:40:57;;;;;;;1.48;1.10;;;4.30;99.90;;;;;;6184248;23;20001;-80
2022/01/14 17:43:31;;;;;;;2.53;1.20;;;4.30;99.90;;;;;;6158746;23;20001;-77
2022/01/14 17:45:59;;;;;;;1.88;1.20;;;4.20;99.90;;;;;;6158260;23;20041;-78
2022/01/14 17:48:26;;;;;;;2.22;0.90;;;4.20;99.90;;;;;;6158175;23;20005;-84
2022/01/14 17:50:53;;;;;;;2.30;1.30;;;4.30;99.90;;;;;;6183760;23;20027;-78
2022/01/14 17:53:21;;;;;;;1.73;1.25;;;4.30;99.90;;;;;;6158918;23;20009;-79
2022/01/14 17:55:48;;;;;;;1.80;0.90;;;4.20;99.90;;;;;;6159601;23;20076;-83
2022/01/14 17:58:14;;;;;;;2.85;1.23;;;4.30;99.90;;;;;;6159457;23;20080;-78
2022/01/14 18:00:41;;;;;;;1.90;1.17;;;4.20;99.90;;;;;;6159393;23;20006;-78
2022/01/14 18:03:07;;;;;;;2.03;1.10;;;4.20;99.90;;;;;;6183264;23;20432;-82
2022/01/14 18:05:33;;;;;;;2.47;1.38;;;4.10;99.90;;;;;;6182806;23;20001;-78
2022/01/14 18:07:59;;;;;;;2.95;1.27;;;4.10;99.90;;;;;;6183129;23;20005;-80
2022/01/14 18:10:30;;;;;;;3.22;1.42;;;4.00;99.90;;;;;;6158053;23;20005;-87
2022/01/14 18:13:10;;;;;;;1.98;1.20;;;3.70;99.90;;;;;;6157626;23;20009;-80
2022/01/14 18:15:36;;;;;;;1.63;0.95;;;3.40;99.90;;;;;;6157694;23;20059;-82
2022/01/14 18:18:05;;;;;;;2.22;0.63;;;3.10;99.90;;;;;;6183426;23;20051;-85
2022/01/14 18:20:31;;;;;;;85.95;40.72;;;2.70;99.90;;;;;;6185124;23;20032;-85
2022/01/14 18:22:57;;;;;;;56.15;30.85;;;2.50;99.90;;;;;;6188688;23;20020;-82
2022/01/14 18:25:23;;;;;;;151.85;85.80;;;2.40;99.90;;;;;;6180384;23;20128;-77
2022/01/14 18:27:50;;;;;;;43.97;25.20;;;2.40;99.90;;;;;;6152848;23;20442;-81
2022/01/14 18:30:17;;;;;;;18.02;9.38;;;2.50;99.90;;;;;;6152748;23;20123;-84
2022/01/14 18:32:43;;;;;;;8.02;3.50;;;2.50;99.90;;;;;;6152865;23;20005;-76
2022/01/14 18:35:10;;;;;;;4.65;1.98;;;2.50;99.90;;;;;;6152061;23;20040;-76
2022/01/14 18:37:37;;;;;;;4.18;1.60;;;2.50;99.30;;;;;;6152130;23;20075;-84
2022/01/14 18:40:06;;;;;;;2.90;1.50;;;2.50;98.30;;;;;;6179054;23;20471;-75
2022/01/14 18:42:32;;;;;;;2.42;1.33;;;2.40;98.10;;;;;;6178059;23;20001;-75
2022/01/14 18:45:09;;;;;;;1.63;1.00;;;2.40;97.70;;;;;;6178179;23;19997;-77
2022/01/14 18:47:35;;;;;;;1.40;0.90;;;2.30;97.60;;;;;;6151974;23;20032;-78
2022/01/14 18:50:03;;;;;;;1.25;1.02;;;2.30;97.80;;;;;;6153070;23;20033;-77
2022/01/14 18:52:29;;;;;;;2.53;1.58;;;2.20;97.10;;;;;;6151129;23;20012;-84
2022/01/14 18:54:55;;;;;;;3.50;1.77;;;2.20;96.90;;;;;;6151451;23;20348;-79
2022/01/14 18:57:21;;;;;;;3.50;1.50;;;2.10;96.60;;;;;;6152587;23;20479;-77
2022/01/14 18:59:49;;;;;;;4.20;1.58;;;2.20;96.10;;;;;;6177730;23;20012;-77
2022/01/14 19:02:15;;;;;;;1.88;1.00;;;2.10;95.40;;;;;;6151435;23;20055;-76
2022/01/14 19:04:46;;;;;;;1.23;0.85;;;2.10;94.50;;;;;;6179694;23;20001;-77
2022/01/14 19:07:15;;;;;;;2.08;1.15;;;2.10;93.70;;;;;;6177758;23;20112;-75
2022/01/14 19:09:44;;;;;;;1.83;1.20;;;2.10;93.00;;;;;;6178999;23;19997;-78
2022/01/14 19:12:10;;;;;;;3.22;1.15;;;2.10;91.70;;;;;;6152576;23;20012;-84
2022/01/14 19:14:36;;;;;;;4.75;2.00;;;2.20;92.50;;;;;;6153149;23;20155;-76
2022/01/14 19:17:20;;;;;;;3.72;1.52;;;2.30;91.50;;;;;;6152777;23;20005;-77
2022/01/14 19:19:46;;;;;;;3.75;1.38;;;2.30;91.80;;;;;;6151725;23;20005;-75
2022/01/14 19:22:15;;;;;;;2.70;1.17;;;2.30;91.80;;;;;;6151283;23;20017;-77
2022/01/14 19:25:12;;;;;;;2.28;1.13;;;2.40;91.90;;;;;;6178545;23;20058;-82
2022/01/14 19:27:38;;;;;;;4.43;1.13;;;2.40;91.60;;;;;;6154114;23;20012;-77
2022/01/14 19:30:05;;;;;;;3.67;1.50;;;2.40;91.90;;;;;;6150729;23;20012;-78
2022/01/14 19:32:31;;;;;;;3.25;1.42;;;2.30;91.20;;;;;;6176968;23;20028;-82
2022/01/14 19:34:59;;;;;;;1.88;1.10;;;2.40;91.30;;;;;;6178647;23;20016;-75
2022/01/14 19:37:26;;;;;;;2.35;1.23;;;2.30;91.60;;;;;;6150909;23;20088;-76
2022/01/14 19:39:52;;;;;;;1.92;1.00;;;2.30;91.80;;;;;;6178425;23;20029;-76
2022/01/14 19:42:19;;;;;;;1.58;1.05;;;2.30;91.70;;;;;;6179154;23;20002;-76
2022/01/14 19:44:47;;;;;;;2.63;1.20;;;2.30;91.50;;;;;;6176324;23;20001;-80
2022/01/14 19:47:15;;;;;;;40.72;24.38;;;2.30;91.40;;;;;;6182944;23;20378;-89
2022/01/14 19:49:42;;;;;;;72.78;39.90;;;2.30;88.60;;;;;;6188758;23;20036;-90
2022/01/14 19:52:09;;;;;;;242.07;125.50;;;2.40;87.20;;;;;;6142748;22;19993;-88
2022/01/14 19:54:38;;;;;;;192.25;94.68;;;2.50;83.70;;;;;;6225869;23;20019;-91
2022/01/14 19:57:04;;;;;;;55.08;27.30;;;2.50;82.50;;;;;;6215839;23;20059;-78
2022/01/14 19:59:30;;;;;;;19.35;8.60;;;2.60;80.30;;;;;;6240458;23;19996;-75
2022/01/14 20:02:00;;;;;;;6.30;3.00;;;2.60;79.40;;;;;;6237381;23;20000;-76
2022/01/14 20:04:26;;;;;;;3.50;2.00;;;2.50;76.90;;;;;;6211169;23;20031;-81
2022/01/14 20:06:52;;;;;;;3.55;1.83;;;2.60;77.60;;;;;;6238358;23;20004;-80
2022/01/14 20:09:18;;;;;;;3.03;1.65;;;2.60;78.40;;;;;;6212509;23;19996;-78
2022/01/14 20:11:44;;;;;;;3.50;1.50;;;2.50;79.80;;;;;;6211137;23;20011;-82
2022/01/14 20:14:11;;;;;;;1.27;1.00;;;2.50;80.50;;;;;;6238917;23;20039;-77
2022/01/14 20:16:37;;;;;;;3.03;1.50;;;2.50;81.40;;;;;;6236170;23;20091;-81
2022/01/14 20:19:04;;;;;;;209.27;107.78;;;2.40;82.20;;;;;;6214262;23;20457;-88
2022/01/14 20:21:36;;;;;;;46.58;24.42;;;2.30;83.80;;;;;;6219294;23;20012;-91
2022/01/14 20:24:03;;;;;;;24.85;13.13;;;2.30;84.90;;;;;;6242581;23;20008;-76
2022/01/14 20:26:29;;;;;;;11.43;5.97;;;2.30;85.70;;;;;;6239988;23;20510;-78
2022/01/14 20:28:56;;;;;;;5.63;3.40;;;2.20;86.10;;;;;;6214518;23;20009;-82
2022/01/14 20:31:23;;;;;;;4.25;2.25;;;2.20;86.20;;;;;;6214965;23;20046;-80
2022/01/14 20:33:49;;;;;;;3.25;1.48;;;2.10;86.30;;;;;;6240454;23;19997;-80
2022/01/14 20:36:15;;;;;;;3.67;1.40;;;2.00;85.90;;;;;;6239043;23;20007;-84
2022/01/14 20:38:42;;;;;;;3.35;1.35;;;1.90;84.60;;;;;;6212785;23;20426;-77
2022/01/14 20:41:08;;;;;;;1.63;0.80;;;1.90;82.90;;;;;;6239344;23;20043;-76
2022/01/14 20:43:47;;;;;;;1.92;1.00;;;1.90;82.30;;;;;;6213340;23;20608;-80
2022/01/14 20:46:14;;;;;;;2.08;1.05;;;1.90;81.60;;;;;;6238709;23;20484;-80
2022/01/14 20:48:40;;;;;;;4.20;1.38;;;1.90;81.70;;;;;;6239097;23;19996;-76
2022/01/14 20:51:06;;;;;;;1.08;0.85;;;1.90;80.60;;;;;;6211441;23;20091;-76
2022/01/14 20:53:31;;;;;;;1.50;0.80;;;2.00;81.00;;;;;;6211172;23;20013;-80
2022/01/14 20:55:57;;;;;;;2.70;1.27;;;2.00;81.10;;;;;;6212831;23;20036;-79
2022/01/14 20:58:23;;;;;;;2.15;1.10;;;1.90;81.70;;;;;;6211798;23;20435;-78
2022/01/14 21:00:49;;;;;;;3.28;1.20;;;1.90;82.00;;;;;;6210966;23;20043;-79
2022/01/14 21:03:15;;;;;;;2.53;1.20;;;1.90;82.30;;;;;;6212266;23;20004;-78
2022/01/14 21:05:41;;;;;;;1.55;1.10;;;1.90;82.80;;;;;;6211535;23;20005;-76
2022/01/14 21:08:07;;;;;;;2.45;1.20;;;1.90;82.60;;;;;;6211783;23;19996;-83
2022/01/14 21:10:33;;;;;;;1.77;0.90;;;1.90;82.80;;;;;;6212224;23;20011;-77
2022/01/14 21:12:59;;;;;;;2.35;1.20;;;1.90;83.00;;;;;;6211853;23;20000;-78
2022/01/14 21:15:25;;;;;;;6.28;1.50;;;1.90;82.30;;;;;;6237910;23;20022;-83
2022/01/14 21:17:51;;;;;;;2.25;1.35;;;1.90;81.70;;;;;;6212350;23;20011;-79
2022/01/14 21:20:19;;;;;;;2.67;1.20;;;2.00;81.00;;;;;;6211464;23;20076;-76
2022/01/14 21:22:47;;;;;;;1.75;1.10;;;2.00;80.40;;;;;;6211233;23;20004;-78
2022/01/14 21:25:15;;;;;;;3.42;1.60;;;2.00;80.10;;;;;;6212634;23;20134;-80
2022/01/14 21:27:41;;;;;;;3.78;1.30;;;2.00;79.80;;;;;;6238478;23;20556;-76
2022/01/14 21:30:08;;;;;;;5.63;1.40;;;2.00;79.20;;;;;;6211433;23;20000;-81